Time;durP1;ratioP1;P1;durP2;ratioP2;P2;SDS_P1;SDS_P2;PMS_P1;PMS_P2;Temp;Humidity;BMP_temperature;BMP_pressure;BME280_temperature;BME280_humidity;BME280_pressure;Samples;Min_cycle;Max_cycle;Signal;HPM_P1;HPM_P2
2022/02/26 00:00:42;;;;;;;19.80;13.00;;;;;;;1.76;63.47;100417.42;214415;1274;142268;-81
2022/02/26 00:05:47;;;;;;;20.80;12.20;;;;;;;1.64;63.71;100428.06;213180;1274;141216;-73
2022/02/26 00:10:52;;;;;;;22.00;15.40;;;;;;;1.53;64.18;100432.20;214300;1274;141986;-72
2022/02/26 00:15:56;;;;;;;23.40;12.10;;;;;;;1.46;64.29;100436.82;213725;1274;142461;-73
2022/02/26 00:21:02;;;;;;;26.10;11.40;;;;;;;1.36;64.20;100437.16;215631;1274;141676;-78
2022/02/26 00:26:08;;;;;;;19.90;10.50;;;;;;;1.24;64.54;100448.92;214608;1274;140855;-77
2022/02/26 00:31:13;;;;;;;26.70;11.10;;;;;;;1.10;64.51;100453.69;215918;1274;140724;-78
2022/02/26 00:36:19;;;;;;;17.00;12.20;;;;;;;0.97;65.17;100464.42;214569;1274;140387;-77
2022/02/26 00:41:25;;;;;;;22.30;10.60;;;;;;;0.90;65.12;100469.48;215848;1274;141672;-75
2022/02/26 00:46:30;;;;;;;23.10;10.90;;;;;;;0.84;65.52;100464.56;215561;1274;142271;-76
2022/02/26 00:51:37;;;;;;;18.10;10.60;;;;;;;0.74;65.45;100462.28;215884;1274;141943;-76
2022/02/26 00:56:42;;;;;;;25.10;12.70;;;;;;;0.64;65.64;100467.06;215665;1276;141354;-76
2022/02/26 01:01:47;;;;;;;17.80;8.00;;;;;;;0.58;65.95;100469.83;214499;1274;140918;-76
2022/02/26 01:06:54;;;;;;;22.60;12.00;;;;;;;0.45;65.86;100471.09;215806;1274;141128;-74
2022/02/26 01:11:58;;;;;;;19.30;11.00;;;;;;;0.38;66.32;100476.17;215070;1274;142350;-73
2022/02/26 01:17:05;;;;;;;21.40;9.90;;;;;;;0.34;66.44;100480.02;214315;1276;141095;-70
2022/02/26 01:22:10;;;;;;;;;;;;;;;0.28;66.21;100486.88;214101;1274;140493;-71
2022/02/26 01:27:15;;;;;;;22.50;11.60;;;;;;;0.16;66.60;100490.73;215010;1274;126812;-66
2022/02/26 01:32:19;;;;;;;17.60;9.10;;;;;;;0.07;66.63;100496.86;213811;1274;140608;-67
2022/02/26 01:37:24;;;;;;;23.00;10.90;;;;;;;-0.10;66.77;100499.67;213729;1274;140839;-67
2022/02/26 01:42:28;;;;;;;20.60;12.90;;;;;;;-0.15;67.36;100503.73;214182;1274;142450;-69
2022/02/26 01:47:32;;;;;;;23.70;9.70;;;;;;;-0.23;67.29;100511.82;213452;1274;142302;-69
2022/02/26 01:52:37;;;;;;;27.10;11.00;;;;;;;-0.29;67.66;100512.05;213897;1274;140881;-69
2022/02/26 01:57:42;;;;;;;22.40;11.40;;;;;;;-0.27;68.23;100509.02;214216;1274;140659;-68
2022/02/26 02:02:48;;;;;;;21.80;9.50;;;;;;;-0.19;68.61;100516.80;213738;1274;142154;-68
2022/02/26 02:07:53;;;;;;;21.40;11.80;;;;;;;-0.10;68.97;100522.96;214550;1274;141352;-67
2022/02/26 02:13:00;;;;;;;20.70;9.00;;;;;;;-0.04;69.11;100530.73;214453;1274;141568;-67
2022/02/26 02:18:06;;;;;;;21.10;10.80;;;;;;;0.03;69.81;100545.86;214454;1274;140801;-68
2022/02/26 02:23:11;;;;;;;24.80;10.80;;;;;;;0.16;69.98;100549.29;215285;1274;140392;-71
2022/02/26 02:28:16;;;;;;;23.60;10.90;;;;;;;0.28;70.24;100550.21;214556;1274;142442;-67
2022/02/26 02:33:20;;;;;;;25.40;13.10;;;;;;;0.41;69.96;100554.16;214590;1274;348372;-76
2022/02/26 02:38:24;;;;;;;27.00;13.70;;;;;;;0.53;70.07;100552.45;214753;1274;140612;-69
2022/02/26 02:43:28;;;;;;;28.70;11.40;;;;;;;0.63;69.96;100548.63;215929;1274;140822;-66
2022/02/26 02:48:32;;;;;;;24.90;10.20;;;;;;;0.73;69.90;100554.94;215024;1274;141942;-67
2022/02/26 02:53:36;;;;;;;18.20;10.50;;;;;;;0.75;69.80;100560.25;215830;1274;141657;-67
2022/02/26 02:58:40;;;;;;;24.20;10.80;;;;;;;0.78;69.60;100564.70;215902;1274;140975;-67
2022/02/26 03:03:45;;;;;;;16.20;10.60;;;;;;;0.80;69.74;100569.61;215074;1274;141045;-70
2022/02/26 03:08:49;;;;;;;19.40;10.60;;;;;;;0.84;69.78;100568.80;214042;1274;140448;-67
2022/02/26 03:13:53;;;;;;;15.40;8.40;;;;;;;0.89;69.98;100579.92;214080;1274;141801;-67
2022/02/26 03:18:58;;;;;;;20.40;11.00;;;;;;;0.91;70.10;100582.84;214646;1275;141695;-71
2022/02/26 03:24:02;;;;;;;16.80;10.40;;;;;;;0.92;70.18;100587.21;214088;1274;143474;-70
2022/02/26 03:29:09;;;;;;;23.00;11.70;;;;;;;0.92;70.23;100591.46;213702;1274;142123;-70
2022/02/26 03:34:15;;;;;;;27.70;11.70;;;;;;;0.89;70.20;100597.55;214081;1274;140969;-69
2022/02/26 03:39:20;;;;;;;23.40;12.20;;;;;;;0.89;70.39;100608.94;213918;1273;140577;-68
2022/02/26 03:44:24;;;;;;;27.30;13.70;;;;;;;0.92;70.48;100613.48;214094;1274;140758;-72
2022/02/26 03:49:29;;;;;;;25.20;13.40;;;;;;;0.96;70.64;100622.86;212890;1274;141246;-71
2022/02/26 03:54:32;;;;;;;20.00;9.50;;;;;;;0.98;70.79;100629.73;213885;1273;140606;-75
2022/02/26 03:59:37;;;;;;;24.00;11.50;;;;;;;0.99;70.56;100632.80;214678;1274;140797;-72
2022/02/26 04:04:42;;;;;;;15.70;8.20;;;;;;;1.06;70.83;100638.27;214287;1274;141934;-73
2022/02/26 04:09:47;;;;;;;21.80;11.50;;;;;;;1.09;70.96;100638.85;214015;1274;140731;-68
2022/02/26 04:14:53;;;;;;;20.70;11.60;;;;;;;1.10;70.96;100637.82;214263;1276;140974;-71
2022/02/26 04:19:58;;;;;;;21.10;10.40;;;;;;;1.13;71.14;100644.92;214737;1274;142396;-68
2022/02/26 04:25:03;;;;;;;19.90;9.70;;;;;;;1.13;71.16;100648.05;214392;1276;208523;-69
2022/02/26 04:30:09;;;;;;;17.60;10.20;;;;;;;1.11;71.42;100652.96;214651;1274;140660;-68
2022/02/26 04:35:16;;;;;;;18.40;10.00;;;;;;;1.12;71.13;100664.65;213189;1274;141509;-69
2022/02/26 04:40:21;;;;;;;15.10;10.30;;;;;;;1.14;71.17;100670.67;212946;1274;140229;-70
2022/02/26 04:45:27;;;;;;;17.60;10.60;;;;;;;1.15;71.74;100683.52;215749;1274;142265;-71
2022/02/26 04:50:31;;;;;;;16.90;10.10;;;;;;;1.19;71.61;100688.95;215326;1276;141227;-70
2022/02/26 04:55:36;;;;;;;13.80;7.50;;;;;;;1.26;71.62;100697.52;215868;1276;141678;-70
2022/02/26 05:00:40;;;;;;;16.90;8.10;;;;;;;1.29;71.65;100703.83;215876;1274;142231;-69
2022/02/26 05:05:45;;;;;;;15.40;9.40;;;;;;;1.31;71.94;100706.11;215879;1275;141053;-70
2022/02/26 05:10:52;;;;;;;16.70;8.60;;;;;;;1.35;72.10;100717.96;215034;1274;140335;-68
2022/02/26 05:15:56;;;;;;;19.60;7.90;;;;;;;1.38;71.92;100734.15;215256;1274;151571;-68
2022/02/26 05:21:01;;;;;;;12.90;7.50;;;;;;;1.43;71.96;100744.17;213925;1274;140627;-68
2022/02/26 05:26:06;;;;;;;17.90;8.90;;;;;;;1.48;72.02;100751.52;214277;1274;141710;-71
2022/02/26 05:31:11;;;;;;;16.20;9.40;;;;;;;1.52;72.19;100761.50;214012;1274;140769;-69
2022/02/26 05:36:16;;;;;;;15.30;9.50;;;;;;;1.53;72.22;100765.18;214081;1274;140617;-70
2022/02/26 05:41:20;;;;;;;19.00;8.00;;;;;;;1.50;72.18;100780.44;214194;1274;140681;-70
2022/02/26 05:46:24;;;;;;;16.70;10.30;;;;;;;1.52;72.47;100790.41;214651;1274;142485;-68
2022/02/26 05:51:28;;;;;;;15.70;9.50;;;;;;;1.59;72.54;100800.84;214509;1274;141817;-69
2022/02/26 05:56:33;;;;;;;20.10;9.40;;;;;;;1.62;72.36;100804.99;214040;1274;142436;-67
2022/02/26 06:01:40;;;;;;;13.40;8.30;;;;;;;1.57;72.62;100811.95;213865;1276;142173;-70
2022/02/26 06:06:44;;;;;;;11.80;6.80;;;;;;;1.53;72.61;100811.66;214500;1276;140414;-67
2022/02/26 06:11:49;;;;;;;17.30;9.40;;;;;;;1.51;72.68;100813.48;213638;1276;140597;-68
2022/02/26 06:16:55;;;;;;;18.00;9.80;;;;;;;1.51;73.00;100816.91;214056;1274;141722;-69
2022/02/26 06:22:00;;;;;;;16.00;10.60;;;;;;;1.49;73.06;100826.38;213519;1274;142146;-65
2022/02/26 06:27:05;;;;;;;18.60;11.90;;;;;;;1.50;73.11;100832.33;213556;1274;141557;-69
2022/02/26 06:32:10;;;;;;;36.00;16.20;;;;;;;1.57;73.49;100841.02;214167;1275;140746;-69
2022/02/26 06:37:15;;;;;;;18.80;10.70;;;;;;;1.70;73.39;100848.33;213905;1274;141424;-70
2022/02/26 06:42:20;;;;;;;27.20;13.20;;;;;;;1.76;73.09;100856.33;214150;1274;142288;-71
2022/02/26 06:47:25;;;;;;;24.70;12.70;;;;;;;1.85;73.64;100867.24;215472;1275;140927;-68
2022/02/26 06:52:30;;;;;;;26.20;13.80;;;;;;;1.97;73.53;100873.14;214357;1274;222304;-70
2022/02/26 06:57:36;;;;;;;26.90;13.10;;;;;;;2.12;73.79;100883.46;215940;1274;141539;-70
2022/02/26 07:02:40;;;;;;;18.40;10.10;;;;;;;2.24;73.79;100893.45;215835;1274;142760;-72
2022/02/26 07:07:44;;;;;;;20.10;9.40;;;;;;;2.33;73.21;100902.20;216077;1276;141731;-71
2022/02/26 07:12:52;;;;;;;10.70;8.40;;;;;;;2.46;73.43;100920.78;215500;1274;140788;-75
2022/02/26 07:17:57;;;;;;;19.70;10.20;;;;;;;2.58;73.40;100926.37;215598;1275;142294;-77
2022/02/26 07:23:03;;;;;;;21.50;11.10;;;;;;;2.69;73.21;100930.73;215575;1274;141720;-72
2022/02/26 07:28:09;;;;;;;13.80;8.70;;;;;;;2.80;73.27;100940.49;214147;1276;142053;-69
2022/02/26 07:33:13;;;;;;;22.50;11.30;;;;;;;2.84;73.35;100953.16;214156;1275;151735;-72
2022/02/26 07:38:19;;;;;;;21.50;12.20;;;;;;;2.88;73.18;100965.61;215586;1274;141975;-73
2022/02/26 07:43:24;;;;;;;20.90;12.20;;;;;;;2.92;73.38;100970.98;213901;1274;142845;-70
2022/02/26 07:48:29;;;;;;;19.80;11.40;;;;;;;2.98;73.14;100974.27;213652;1274;141961;-72
2022/02/26 07:53:34;;;;;;;19.70;13.80;;;;;;;3.04;73.13;100979.81;215305;1274;141669;-77
2022/02/26 07:58:38;;;;;;;23.30;14.10;;;;;;;3.12;73.21;100985.83;214758;1274;141786;-70
2022/02/26 08:03:41;;;;;;;16.40;11.00;;;;;;;3.22;73.08;100988.52;214670;1274;140825;-73
2022/02/26 08:08:46;;;;;;;18.10;12.10;;;;;;;3.28;73.09;100996.67;214107;1274;142416;-70
2022/02/26 08:13:52;;;;;;;18.40;13.90;;;;;;;3.39;73.35;101008.73;213875;1274;141081;-70
2022/02/26 08:18:56;;;;;;;14.70;10.50;;;;;;;3.48;73.19;101014.09;213378;1274;141880;-69
2022/02/26 08:24:00;;;;;;;18.20;11.80;;;;;;;3.50;72.97;101024.76;214514;1275;141717;-75
2022/02/26 08:29:04;;;;;;;27.80;15.80;;;;;;;3.50;73.03;101031.45;215319;1274;142151;-78
2022/02/26 08:34:07;;;;;;;27.80;17.40;;;;;;;3.51;73.06;101035.07;213178;1274;140847;-72
2022/02/26 08:39:12;;;;;;;22.10;12.50;;;;;;;3.54;73.22;101043.02;213672;1274;143616;-73
2022/02/26 08:44:16;;;;;;;26.70;16.80;;;;;;;3.60;73.07;101052.95;214141;1274;141651;-72
2022/02/26 08:49:20;;;;;;;30.20;20.50;;;;;;;3.66;73.19;101060.91;214589;1274;141336;-72
2022/02/26 08:54:24;;;;;;;40.20;20.20;;;;;;;3.70;73.12;101067.91;214568;1274;206603;-74
2022/02/26 08:59:30;;;;;;;26.00;12.50;;;;;;;3.74;72.90;101073.28;215387;1274;141011;-75
2022/02/26 09:04:36;;;;;;;16.70;11.80;;;;;;;3.75;72.93;101079.21;215622;1274;141691;-75
2022/02/26 09:09:41;;;;;;;27.20;16.90;;;;;;;3.76;72.93;101083.27;214382;1274;141150;-73
2022/02/26 09:14:45;;;;;;;21.70;13.80;;;;;;;3.85;73.14;101094.56;215119;1274;140899;-74
2022/02/26 09:19:50;;;;;;;30.80;21.60;;;;;;;3.96;73.13;101098.31;215954;1272;142330;-74
2022/02/26 09:24:55;;;;;;;25.30;15.00;;;;;;;4.08;72.94;101104.23;214984;1274;142457;-68
2022/02/26 09:29:59;;;;;;;18.00;11.10;;;;;;;4.17;72.97;101109.50;214980;1274;142397;-68
2022/02/26 09:35:04;;;;;;;16.10;9.60;;;;;;;4.18;72.73;101120.20;213603;1274;140502;-73
2022/02/26 09:40:09;;;;;;;13.60;9.50;;;;;;;4.21;72.69;101124.73;214882;1274;140905;-72
2022/02/26 09:45:13;;;;;;;15.70;10.40;;;;;;;4.29;72.89;101132.94;215233;1274;142577;-71
2022/02/26 09:50:17;;;;;;;22.40;13.90;;;;;;;4.46;72.84;101132.46;215259;1274;140670;-69
2022/02/26 09:55:22;;;;;;;14.20;11.80;;;;;;;4.63;72.56;101135.54;214833;1274;140691;-68
2022/02/26 10:00:26;;;;;;;17.10;10.60;;;;;;;4.85;72.32;101142.25;214411;1274;141046;-70
2022/02/26 10:05:32;;;;;;;15.50;9.10;;;;;;;5.00;72.22;101146.02;214401;1274;142765;-77
2022/02/26 10:10:43;;;;;;;17.70;10.60;;;;;;;5.12;71.96;101148.09;214402;1274;140561;-72
2022/02/26 10:15:47;;;;;;;20.30;11.20;;;;;;;5.16;71.82;101156.83;213861;1274;141295;-69
2022/02/26 10:20:54;;;;;;;16.20;10.90;;;;;;;5.18;71.70;101160.66;213046;1274;141070;-72
2022/02/26 10:26:11;;;;;;;19.70;11.00;;;;;;;5.27;71.60;101165.13;213940;1274;140845;-72
2022/02/26 10:31:15;;;;;;;23.10;14.10;;;;;;;5.33;71.63;101171.06;213984;1274;142120;-73
2022/02/26 10:36:20;;;;;;;20.40;10.60;;;;;;;5.40;71.64;101176.42;213761;1274;140886;-69
2022/02/26 10:41:24;;;;;;;17.70;11.50;;;;;;;5.50;71.54;101178.76;213144;1274;140945;-74
2022/02/26 10:46:30;;;;;;;22.00;14.30;;;;;;;5.58;71.20;101186.11;214392;1274;140718;-71
2022/02/26 10:51:38;;;;;;;15.90;10.50;;;;;;;5.69;71.10;101187.77;213187;1274;140673;-71
2022/02/26 10:56:44;;;;;;;13.30;10.00;;;;;;;5.72;70.64;101196.23;214279;1274;141948;-72
2022/02/26 11:02:02;;;;;;;22.00;15.10;;;;;;;5.76;70.51;101198.11;214107;1274;141501;-71
2022/02/26 11:07:07;;;;;;;13.30;9.50;;;;;;;5.69;70.67;101197.92;215359;1276;141318;-73
2022/02/26 11:12:15;;;;;;;16.80;11.10;;;;;;;5.72;70.64;101201.63;215376;1276;141600;-74
2022/02/26 11:17:22;;;;;;;16.30;11.30;;;;;;;5.77;70.01;101198.31;214527;1276;140517;-71
2022/02/26 11:22:28;;;;;;;18.30;12.70;;;;;;;5.83;70.13;101195.94;215741;1274;150579;-77
2022/02/26 11:27:32;;;;;;;12.00;9.10;;;;;;;5.98;69.96;101189.48;215915;1274;140387;-72
2022/02/26 11:32:40;;;;;;;10.70;9.20;;;;;;;6.06;69.44;101193.88;215139;1274;141531;-71
2022/02/26 11:37:48;;;;;;;13.20;8.50;;;;;;;6.16;69.24;101194.69;215880;1274;141213;-75
2022/02/26 11:42:55;;;;;;;15.00;7.50;;;;;;;6.27;69.21;101192.81;215726;1274;140882;-79
2022/02/26 11:48:05;;;;;;;13.30;9.30;;;;;;;6.30;69.01;101192.97;215695;1274;141930;-76
2022/02/26 11:53:15;;;;;;;13.80;8.50;;;;;;;6.40;68.40;101193.92;214760;1274;140087;-70
2022/02/26 11:58:33;;;;;;;17.50;12.50;;;;;;;6.38;68.58;101195.39;212833;1274;140875;-77
2022/02/26 12:03:44;;;;;;;;;;;;;;;6.30;69.02;101203.56;214201;1274;141909;-74
2022/02/26 12:08:47;;;;;;;19.50;11.40;;;;;;;6.17;68.41;101206.27;214109;1275;128353;-71
2022/02/26 12:13:55;;;;;;;21.30;14.10;;;;;;;6.09;68.26;101209.15;215972;1274;141535;-77
2022/02/26 12:19:11;;;;;;;19.10;11.80;;;;;;;5.95;68.23;101215.00;213555;1275;140354;-73
2022/02/26 12:24:18;;;;;;;17.00;9.50;;;;;;;5.86;68.38;101219.05;214924;1276;141635;-75
2022/02/26 12:29:23;;;;;;;;;;;;;;;5.82;68.13;101222.02;213346;1277;141642;-75
2022/02/26 12:34:30;;;;;;;14.60;8.30;;;;;;;5.74;68.54;101221.89;213907;1276;127568;-79
2022/02/26 12:39:39;;;;;;;15.20;10.10;;;;;;;5.73;68.18;101226.63;214505;1276;141572;-78
2022/02/26 12:44:43;;;;;;;14.80;9.40;;;;;;;5.65;67.85;101232.44;212684;1277;142267;-74
2022/02/26 12:49:47;;;;;;;14.00;7.90;;;;;;;5.66;68.27;101234.59;213902;1276;141156;-72
2022/02/26 12:54:51;;;;;;;8.40;5.90;;;;;;;5.60;67.87;101239.28;213706;1276;141641;-76
2022/02/26 12:59:54;;;;;;;11.50;7.20;;;;;;;5.49;67.78;101242.63;213550;1276;140035;-74
2022/02/26 13:05:03;;;;;;;12.70;6.50;;;;;;;5.44;67.85;101244.42;214099;1276;141447;-76
2022/02/26 13:10:09;;;;;;;16.60;7.90;;;;;;;5.44;67.62;101247.23;214876;1276;141292;-73
2022/02/26 13:15:15;;;;;;;9.60;7.00;;;;;;;5.49;67.68;101243.34;215349;1276;141538;-74
2022/02/26 13:20:25;;;;;;;12.20;7.70;;;;;;;5.53;67.54;101240.44;215529;1274;139944;-70
2022/02/26 13:25:30;;;;;;;15.00;7.60;;;;;;;5.58;67.44;101240.77;215459;1274;143397;-70
2022/02/26 13:30:35;;;;;;;13.10;7.90;;;;;;;5.61;67.26;101239.41;215642;1274;141252;-73
2022/02/26 13:35:39;;;;;;;13.00;7.60;;;;;;;5.62;67.29;101236.23;215574;1274;140247;-73
2022/02/26 13:40:43;;;;;;;16.00;7.40;;;;;;;5.62;66.85;101245.40;215682;1274;140884;-75
2022/02/26 13:45:47;;;;;;;12.10;7.70;;;;;;;5.61;67.04;101250.33;215598;1274;140914;-73
2022/02/26 13:50:56;;;;;;;10.20;6.30;;;;;;;5.59;66.90;101251.78;214397;1275;139465;-72
2022/02/26 13:56:01;;;;;;;10.20;6.80;;;;;;;5.52;66.86;101259.06;213848;1274;139754;-72
2022/02/26 14:01:11;;;;;;;12.50;8.40;;;;;;;5.39;66.97;101265.43;212963;1274;141493;-67
2022/02/26 14:06:29;;;;;;;12.40;7.80;;;;;;;5.36;67.30;101273.82;214091;1274;140715;-70
2022/02/26 14:11:33;;;;;;;9.30;5.30;;;;;;;5.35;66.82;101280.66;213921;1274;141137;-71
2022/02/26 14:16:37;;;;;;;16.40;9.10;;;;;;;5.24;66.75;101285.36;215091;1274;139892;-70
2022/02/26 14:21:41;;;;;;;13.60;8.00;;;;;;;5.20;67.06;101288.10;214044;1274;142757;-69
2022/02/26 14:26:51;;;;;;;12.80;8.20;;;;;;;5.14;66.89;101293.98;214494;1274;139927;-75
2022/02/26 14:31:57;;;;;;;12.60;9.30;;;;;;;5.12;66.88;101297.23;214469;1276;595749;-69
2022/02/26 14:37:04;;;;;;;20.30;10.10;;;;;;;5.09;66.92;101304.55;214083;1274;140926;-75
2022/02/26 14:42:12;;;;;;;12.00;9.30;;;;;;;5.11;67.25;101310.85;214297;1274;142241;-72
2022/02/26 14:47:16;;;;;;;13.70;7.80;;;;;;;5.11;67.26;101318.81;215108;1276;141129;-74
2022/02/26 14:52:21;;;;;;;15.10;11.50;;;;;;;5.04;67.19;101317.16;214561;1274;220489;-76
2022/02/26 14:57:25;;;;;;;14.60;9.10;;;;;;;5.00;67.52;101321.70;213245;1274;141480;-72
2022/02/26 15:02:29;;;;;;;17.60;8.80;;;;;;;4.95;67.58;101324.72;214532;1274;139547;-73
2022/02/26 15:07:33;;;;;;;13.80;9.40;;;;;;;4.91;67.58;101326.52;213610;1274;141477;-69
2022/02/26 15:12:38;;;;;;;15.00;9.90;;;;;;;4.91;67.75;101329.52;214450;1274;143458;-73
2022/02/26 15:17:42;;;;;;;16.70;10.10;;;;;;;4.92;67.77;101335.96;214675;1274;140996;-73
2022/02/26 15:22:46;;;;;;;16.40;10.60;;;;;;;4.91;68.02;101340.95;214198;1274;141754;-73
2022/02/26 15:27:50;;;;;;;16.60;9.20;;;;;;;4.86;67.82;101346.73;214912;1274;140545;-75
2022/02/26 15:32:55;;;;;;;18.70;10.10;;;;;;;4.81;67.97;101345.88;215929;1274;139419;-68
2022/02/26 15:37:59;;;;;;;18.70;9.80;;;;;;;4.74;68.05;101347.98;215954;1274;140978;-72
2022/02/26 15:43:02;;;;;;;16.80;10.70;;;;;;;4.65;68.21;101357.90;215891;1274;154762;-72
2022/02/26 15:48:06;;;;;;;19.90;10.80;;;;;;;4.56;68.08;101364.69;215414;1274;141822;-71
2022/02/26 15:53:10;;;;;;;15.70;9.60;;;;;;;4.43;68.04;101373.42;215716;1274;142058;-72
2022/02/26 15:58:13;;;;;;;21.00;11.50;;;;;;;4.29;68.35;101382.86;215591;1274;141069;-71
2022/02/26 16:03:17;;;;;;;16.80;11.00;;;;;;;4.20;68.70;101392.13;215601;1274;142137;-71
2022/02/26 16:08:22;;;;;;;22.50;11.00;;;;;;;4.07;68.83;101404.26;215159;1274;142193;-70
2022/02/26 16:13:25;;;;;;;14.40;9.40;;;;;;;4.01;68.87;101414.65;215901;1274;141957;-72
2022/02/26 16:18:30;;;;;;;13.20;10.00;;;;;;;3.92;68.78;101421.58;214709;1274;143407;-76
2022/02/26 16:23:36;;;;;;;14.30;9.80;;;;;;;3.80;68.53;101432.59;214641;1274;141574;-72
2022/02/26 16:28:39;;;;;;;17.80;10.50;;;;;;;3.64;68.49;101442.77;214330;1274;140495;-73
2022/02/26 16:33:44;;;;;;;12.60;9.50;;;;;;;3.44;68.66;101454.08;215193;1274;141141;-73
2022/02/26 16:38:47;;;;;;;18.20;11.00;;;;;;;3.19;68.65;101461.86;214397;1272;141275;-71
2022/02/26 16:43:51;;;;;;;17.00;10.10;;;;;;;3.01;68.67;101466.90;213488;1274;142830;-74
2022/02/26 16:48:55;;;;;;;18.00;10.40;;;;;;;2.91;69.04;101468.95;214054;1274;142978;-75
2022/02/26 16:53:59;;;;;;;15.10;10.70;;;;;;;2.81;69.35;101473.15;213642;1274;141568;-76
2022/02/26 16:59:04;;;;;;;17.80;10.10;;;;;;;2.70;69.56;101475.48;213918;1274;141605;-76
2022/02/26 17:04:08;;;;;;;14.00;9.50;;;;;;;2.52;69.70;101480.82;214340;1274;140780;-75
2022/02/26 17:09:13;;;;;;;16.40;10.90;;;;;;;2.38;70.17;101487.66;213279;1274;141231;-74
2022/02/26 17:14:17;;;;;;;25.30;14.10;;;;;;;2.31;70.54;101489.66;213107;1274;140775;-75
2022/02/26 17:19:21;;;;;;;24.10;13.10;;;;;;;2.23;70.55;101489.52;214924;1274;140411;-76
2022/02/26 17:24:25;;;;;;;26.40;13.00;;;;;;;2.18;71.24;101491.23;213380;1274;142180;-77
2022/02/26 17:29:29;;;;;;;39.50;14.70;;;;;;;2.13;71.02;101489.99;215725;1273;143577;-77
2022/02/26 17:34:34;;;;;;;50.70;21.80;;;;;;;2.06;71.06;101495.17;213147;1273;141999;-76
2022/02/26 17:39:38;;;;;;;39.10;16.70;;;;;;;1.99;71.27;101505.23;215933;1274;142016;-76
2022/02/26 17:44:44;;;;;;;27.40;15.20;;;;;;;1.93;71.38;101513.83;216134;1274;141138;-77
2022/02/26 17:49:49;;;;;;;;;;;;;;;1.86;71.48;101520.23;216158;1274;141138;-77
2022/02/26 17:54:54;;;;;;;16.50;10.10;;;;;;;1.70;71.17;101527.94;215672;1274;128041;-75
2022/02/26 17:59:59;;;;;;;21.50;12.00;;;;;;;1.57;71.33;101530.88;215730;1274;142777;-74
2022/02/26 18:05:05;;;;;;;24.60;15.60;;;;;;;1.51;71.65;101535.02;215110;1274;141741;-74
2022/02/26 18:10:11;;;;;;;36.70;19.60;;;;;;;1.46;71.54;101538.45;215130;1274;142859;-75
2022/02/26 18:15:16;;;;;;;28.10;17.00;;;;;;;1.31;71.41;101539.09;213054;1274;143828;-73
2022/02/26 18:20:20;;;;;;;26.30;16.00;;;;;;;1.11;71.86;101550.79;214150;1275;141163;-72
2022/02/26 18:25:24;;;;;;;31.10;16.70;;;;;;;1.04;72.23;101553.09;215025;1274;142001;-74
2022/02/26 18:30:28;;;;;;;26.60;15.40;;;;;;;0.97;72.09;101559.95;214098;1274;142396;-75
2022/02/26 18:35:38;;;;;;;20.80;13.10;;;;;;;0.89;72.18;101563.10;215139;1274;144367;-75
2022/02/26 18:40:43;;;;;;;24.30;15.50;;;;;;;0.80;72.32;101573.49;214804;1274;140888;-74
2022/02/26 18:45:47;;;;;;;21.30;14.50;;;;;;;0.67;72.16;101577.71;214580;1274;142815;-75
2022/02/26 18:50:51;;;;;;;21.80;13.20;;;;;;;0.59;72.66;101584.67;214715;1274;140512;-76
2022/02/26 18:55:57;;;;;;;37.80;14.60;;;;;;;0.36;72.28;101577.48;212276;1276;142037;-73
2022/02/26 19:01:01;;;;;;;26.30;14.70;;;;;;;0.14;72.67;101576.93;213326;1274;142160;-73
2022/02/26 19:06:06;;;;;;;26.50;16.20;;;;;;;0.01;72.90;101580.44;214786;1274;141426;-74
2022/02/26 19:11:10;;;;;;;36.50;19.80;;;;;;;-0.08;73.15;101585.15;214075;1274;142126;-71
2022/02/26 19:16:14;;;;;;;29.60;16.90;;;;;;;-0.15;73.15;101578.71;213318;1274;142311;-68
2022/02/26 19:21:18;;;;;;;29.10;15.90;;;;;;;-0.27;72.94;101580.74;213129;1274;142464;-73
2022/02/26 19:26:24;;;;;;;36.30;17.50;;;;;;;-0.40;73.38;101585.38;214115;1274;141483;-75
2022/02/26 19:31:28;;;;;;;25.60;14.60;;;;;;;-0.42;73.90;101591.16;213177;1274;141868;-72
2022/02/26 19:36:32;;;;;;;30.00;16.30;;;;;;;-0.42;74.11;101587.45;215093;1274;141549;-73
2022/02/26 19:41:37;;;;;;;30.80;17.20;;;;;;;-0.50;73.98;101593.32;215605;1274;141032;-75
2022/02/26 19:46:43;;;;;;;29.70;16.10;;;;;;;-0.55;74.07;101602.59;215628;1274;141632;-74
2022/02/26 19:51:46;;;;;;;34.00;20.20;;;;;;;-0.54;73.97;101604.47;215712;1274;141879;-68
2022/02/26 19:56:51;;;;;;;44.20;20.80;;;;;;;-0.61;73.68;101596.13;215626;1274;143276;-75
2022/02/26 20:01:55;;;;;;;56.30;29.80;;;;;;;-0.70;73.88;101603.30;215599;1274;141564;-74
2022/02/26 20:06:59;;;;;;;55.70;27.90;;;;;;;-0.74;73.84;101611.77;215604;1274;142149;-72
2022/02/26 20:12:04;;;;;;;53.00;30.00;;;;;;;-0.79;73.50;101614.05;215099;1274;141380;-72
2022/02/26 20:17:08;;;;;;;51.10;26.70;;;;;;;-0.89;73.73;101615.34;214453;1275;142229;-72
2022/02/26 20:22:12;;;;;;;51.70;26.10;;;;;;;-0.92;74.31;101618.89;215099;1274;141295;-73
2022/02/26 20:27:18;;;;;;;47.00;26.80;;;;;;;-0.89;74.46;101629.11;214544;1274;140551;-72
2022/02/26 20:32:22;;;;;;;47.40;23.40;;;;;;;-0.89;74.35;101634.75;213872;1274;140096;-70
2022/02/26 20:37:26;;;;;;;50.90;24.10;;;;;;;-0.96;74.39;101638.59;214928;1274;140925;-72
2022/02/26 20:42:31;;;;;;;42.40;23.20;;;;;;;-1.05;74.44;101639.95;214744;1274;140772;-72
2022/02/26 20:47:35;;;;;;;47.70;23.90;;;;;;;-1.11;74.47;101633.23;214764;1274;141222;-74
2022/02/26 20:52:40;;;;;;;36.70;19.60;;;;;;;-1.23;74.32;101615.44;213866;1274;151139;-70
2022/02/26 20:57:44;;;;;;;38.50;23.20;;;;;;;-1.39;74.42;101619.58;214014;1274;141890;-67
2022/02/26 21:02:48;;;;;;;40.90;20.50;;;;;;;-1.54;74.87;101625.42;214394;1274;142670;-73
2022/02/26 21:07:54;;;;;;;49.20;28.90;;;;;;;-1.64;75.16;101623.18;213618;1274;142439;-70
2022/02/26 21:13:00;;;;;;;49.70;27.20;;;;;;;-1.70;75.51;101631.08;213660;1274;144472;-70
2022/02/26 21:18:04;;;;;;;58.90;30.10;;;;;;;-1.66;75.83;101640.73;214231;1274;142239;-70
2022/02/26 21:23:08;;;;;;;62.30;33.20;;;;;;;-1.68;75.46;101642.29;213909;1274;141090;-73
2022/02/26 21:28:17;;;;;;;64.10;37.10;;;;;;;-1.70;75.90;101652.30;214949;1274;142709;-74
2022/02/26 21:33:27;;;;;;;79.20;38.10;;;;;;;-1.64;75.92;101652.80;213965;1274;142836;-69
2022/02/26 21:38:31;;;;;;;145.00;56.60;;;;;;;-1.68;75.79;101658.29;213100;1274;142783;-68
2022/02/26 21:43:35;;;;;;;146.10;58.70;;;;;;;-1.71;75.85;101656.74;213833;1276;142070;-70
2022/02/26 21:48:40;;;;;;;147.90;57.10;;;;;;;-1.71;75.98;101663.37;214633;1274;141868;-70
2022/02/26 21:53:47;;;;;;;128.20;52.80;;;;;;;-1.70;75.95;101670.66;215519;1274;142886;-71
2022/02/26 21:58:51;;;;;;;91.00;43.50;;;;;;;-1.72;75.89;101675.64;215891;1274;141751;-73
2022/02/26 22:03:55;;;;;;;106.00;47.00;;;;;;;-1.78;75.64;101674.52;215929;1274;141148;-73
2022/02/26 22:09:00;;;;;;;124.70;48.90;;;;;;;-1.88;75.54;101689.55;215715;1274;141051;-73
2022/02/26 22:14:06;;;;;;;91.60;39.70;;;;;;;-1.92;75.65;101692.59;215804;1274;141041;-66
2022/02/26 22:19:10;;;;;;;92.50;41.50;;;;;;;-1.93;75.66;101694.94;215420;1274;141160;-72
2022/02/26 22:24:15;;;;;;;90.20;43.50;;;;;;;-1.94;75.68;101691.17;215000;1274;140502;-73
2022/02/26 22:29:19;;;;;;;87.90;39.10;;;;;;;-1.91;75.87;101697.42;214421;1274;141237;-72
2022/02/26 22:34:24;;;;;;;80.20;39.60;;;;;;;-1.92;75.78;101701.80;214594;1274;141078;-71
2022/02/26 22:39:29;;;;;;;81.00;38.20;;;;;;;-1.90;75.86;101707.63;214525;1274;140875;-72
2022/02/26 22:44:33;;;;;;;93.40;42.40;;;;;;;-1.89;75.92;101712.23;215162;1274;140751;-72
2022/02/26 22:49:37;;;;;;;91.20;43.30;;;;;;;-1.87;76.25;101718.59;213852;1274;234545;-72
2022/02/26 22:54:41;;;;;;;94.10;46.70;;;;;;;-1.91;76.11;101725.52;214079;1274;141270;-73